createdAt,value
2019-06-07T00:02:03.833Z,10.90
2019-06-07T00:04:34.508Z,12.03
2019-06-07T00:07:08.588Z,9.93
2019-06-07T00:09:38.468Z,11.30
2019-06-07T00:12:10.958Z,10.47
2019-06-07T00:14:41.890Z,12.20
2019-06-07T00:17:14.090Z,17.23
2019-06-07T00:19:45.381Z,12.87
2019-06-07T00:22:29.103Z,12.70
2019-06-07T00:24:48.667Z,11.30
2019-06-07T00:27:22.244Z,17.63
2019-06-07T00:29:52.436Z,12.93
2019-06-07T00:32:23.161Z,11.90
2019-06-07T00:34:53.958Z,14.70
2019-06-07T00:37:25.625Z,15.27
2019-06-07T00:40:13.384Z,11.57
2019-06-07T00:42:28.867Z,14.57
2019-06-07T00:44:59.532Z,13.13
2019-06-07T00:47:30.448Z,12.37
2019-06-07T00:50:01.085Z,13.90
2019-06-07T00:55:04.427Z,11.63
2019-06-07T00:57:35.166Z,15.37
2019-06-07T01:00:06.566Z,13.40
2019-06-07T01:02:37.344Z,11.90
2019-06-07T01:05:09.231Z,12.87
2019-06-07T01:07:40.429Z,12.30
2019-06-07T01:10:16.549Z,12.40
2019-06-07T01:12:46.743Z,12.97
2019-06-07T01:15:28.517Z,12.73
2019-06-07T01:20:28.289Z,13.67
2019-06-07T01:22:58.966Z,13.37
2019-06-07T01:25:29.663Z,15.13
2019-06-07T01:28:00.345Z,14.53
2019-06-07T01:30:31.143Z,15.83
2019-06-07T01:33:01.793Z,14.27
2019-06-07T01:35:32.520Z,16.37
2019-06-07T01:38:03.247Z,13.93
2019-06-07T01:40:33.956Z,16.30
2019-06-07T01:43:04.620Z,16.50
2019-06-07T01:45:35.430Z,16.87
2019-06-07T01:48:06.142Z,18.07
2019-06-07T01:50:36.887Z,15.63
2019-06-07T01:53:07.560Z,16.70
2019-06-07T01:55:38.249Z,14.47
2019-06-07T01:58:09.111Z,14.27
2019-06-07T02:00:40.393Z,17.60
2019-06-07T02:03:11.135Z,13.77
2019-06-07T02:05:41.811Z,15.53
2019-06-07T02:08:12.561Z,18.93
2019-06-07T02:10:44.294Z,18.77
2019-06-07T02:13:14.938Z,17.03
2019-06-07T02:15:45.732Z,15.90
2019-06-07T02:18:16.399Z,17.40
2019-06-07T02:20:47.969Z,15.93
2019-06-07T02:23:20.338Z,16.33
2019-06-07T02:25:51.450Z,15.40
2019-06-07T02:28:32.079Z,15.57
2019-06-07T02:30:59.822Z,19.20
2019-06-07T02:33:33.523Z,21.17
2019-06-07T02:35:59.576Z,17.43
2019-06-07T02:38:32.625Z,18.20
2019-06-07T02:41:02.713Z,14.87
2019-06-07T02:43:36.887Z,15.87
2019-06-07T02:46:25.100Z,17.53
2019-06-07T02:48:44.541Z,16.00
2019-06-07T02:51:15.260Z,17.13
2019-06-07T02:53:45.945Z,14.90
2019-06-07T02:58:49.642Z,15.03
2019-06-07T03:01:20.359Z,15.80
2019-06-07T03:03:51.859Z,18.67
2019-06-07T03:06:23.248Z,14.53
2019-06-07T03:08:55.944Z,15.40
2019-06-07T03:11:31.649Z,17.33
2019-06-07T03:14:04.394Z,17.73
2019-06-07T03:16:41.866Z,14.50
2019-06-07T03:19:23.554Z,15.57
2019-06-07T03:21:55.684Z,12.67
2019-06-07T03:24:30.621Z,14.90
2019-06-07T03:29:33.827Z,11.50
2019-06-07T03:32:04.427Z,14.80
2019-06-07T03:34:41.037Z,15.93
2019-06-07T03:37:07.569Z,18.37
2019-06-07T03:39:40.990Z,13.23
2019-06-07T03:42:15.286Z,14.10
2019-06-07T03:44:45.954Z,10.80
2019-06-07T03:47:23.058Z,12.03
2019-06-07T03:49:54.456Z,13.43
2019-06-07T03:52:25.160Z,10.13
2019-06-07T03:54:56.698Z,12.73
2019-06-07T03:57:28.746Z,13.10
2019-06-07T03:59:59.784Z,9.00
2019-06-07T04:02:33.050Z,9.00
2019-06-07T04:05:02.895Z,8.93
2019-06-07T04:07:36.075Z,11.03
2019-06-07T04:10:06.741Z,9.00
2019-06-07T04:12:39.982Z,8.97
2019-06-07T04:15:10.197Z,12.30
2019-06-07T04:18:00.371Z,6.13
2019-06-07T04:20:14.132Z,7.30
2019-06-07T04:22:45.596Z,6.17
2019-06-07T04:25:16.355Z,7.57
2019-06-07T04:27:47.044Z,5.67
2019-06-07T04:30:39.528Z,6.93
2019-06-07T04:33:11.301Z,4.67
2019-06-07T04:35:45.287Z,7.13
2019-06-07T04:38:16.834Z,9.00
2019-06-07T04:40:48.886Z,5.63
2019-06-07T04:43:21.253Z,6.87
2019-06-07T04:45:52.541Z,4.50
2019-06-07T04:48:25.063Z,6.63
2019-06-07T04:50:59.502Z,5.10
2019-06-07T04:53:34.428Z,7.40
2019-06-07T04:56:02.674Z,6.53
2019-06-07T04:58:35.785Z,5.10
2019-06-07T05:01:24.428Z,7.10
2019-06-07T05:03:44.072Z,8.43
2019-06-07T05:06:13.068Z,6.33
2019-06-07T05:08:52.795Z,4.60
2019-06-07T05:11:23.780Z,6.07
2019-06-07T05:13:54.814Z,4.73
2019-06-07T05:16:25.553Z,4.37
2019-06-07T05:18:56.574Z,4.50
2019-06-07T05:21:46.487Z,4.20
2019-06-07T05:24:07.649Z,4.30
2019-06-07T05:26:33.054Z,8.53
2019-06-07T05:29:04.877Z,4.50
2019-06-07T05:31:39.032Z,8.07
2019-06-07T05:34:08.239Z,4.87
2019-06-07T05:36:42.482Z,4.23
2019-06-07T05:39:11.796Z,5.47
2019-06-07T05:41:44.312Z,7.93
2019-06-07T05:44:15.374Z,4.80
2019-06-07T05:46:47.429Z,4.50
2019-06-07T05:49:18.390Z,6.93
2019-06-07T05:51:51.387Z,8.50
2019-06-07T05:54:22.613Z,6.13
2019-06-07T05:56:53.425Z,8.80
2019-06-07T05:59:24.131Z,6.73
2019-06-07T06:02:02.830Z,6.50
2019-06-07T06:04:27.258Z,7.60
2019-06-07T06:06:58.245Z,10.23
2019-06-07T06:09:28.928Z,7.37
2019-06-07T06:12:02.485Z,4.13
2019-06-07T06:14:32.346Z,5.67
2019-06-07T06:17:05.413Z,6.13
2019-06-07T06:19:40.715Z,8.50
2019-06-07T06:22:10.181Z,8.07
2019-06-07T06:25:01.456Z,4.70
2019-06-07T06:27:41.743Z,4.43
2019-06-07T06:29:50.442Z,5.30
2019-06-07T06:34:53.926Z,7.33
2019-06-07T06:37:24.803Z,6.17
2019-06-07T06:39:55.670Z,5.03
2019-06-07T06:42:26.346Z,8.10
2019-06-07T06:44:57.069Z,9.80
2019-06-07T06:47:27.837Z,5.10
2019-06-07T06:49:58.466Z,3.70
2019-06-07T06:52:29.159Z,4.23
2019-06-07T06:55:01.099Z,4.73
2019-06-07T06:57:31.987Z,6.13
2019-06-07T07:00:03.199Z,5.57
2019-06-07T07:02:33.865Z,5.47
2019-06-07T07:05:07.096Z,8.47
2019-06-07T07:07:38.132Z,8.57
2019-06-07T07:10:09.673Z,7.07
2019-06-07T07:12:42.710Z,6.53
2019-06-07T07:15:19.927Z,4.37
2019-06-07T07:18:03.669Z,7.53
2019-06-07T07:20:24.876Z,4.47
2019-06-07T07:22:57.199Z,8.93
2019-06-07T07:25:28.081Z,5.97
2019-06-07T07:27:58.784Z,5.53
2019-06-07T07:30:45.011Z,4.03
2019-06-07T07:33:15.948Z,8.63
2019-06-07T07:36:13.323Z,3.30
2019-06-07T07:38:19.693Z,5.43
2019-06-07T07:41:13.382Z,9.03
2019-06-07T07:43:23.272Z,7.07
2019-06-07T07:46:02.149Z,6.63
2019-06-07T07:48:28.766Z,5.30
2019-06-07T07:51:01.251Z,3.70
2019-06-07T07:53:47.890Z,3.47
2019-06-07T07:56:05.371Z,6.30
2019-06-07T07:58:36.375Z,5.10
2019-06-07T08:01:10.547Z,6.00
2019-06-07T08:03:40.896Z,4.13
2019-06-07T08:06:11.496Z,3.30
2019-06-07T08:08:42.561Z,6.23
2019-06-07T08:11:13.243Z,2.33
2019-06-07T08:13:45.819Z,4.17
2019-06-07T08:16:18.832Z,3.10
2019-06-07T08:19:04.089Z,4.07
2019-06-07T08:21:34.532Z,6.27
2019-06-07T08:24:05.790Z,4.47
2019-06-07T08:26:36.740Z,4.30
2019-06-07T08:29:08.669Z,5.10
2019-06-07T08:31:39.492Z,9.23
2019-06-07T08:34:11.040Z,5.60
2019-06-07T08:36:42.856Z,3.97
2019-06-07T08:39:13.583Z,6.13
2019-06-07T08:41:53.946Z,9.00
2019-06-07T08:44:23.811Z,7.37
2019-06-07T08:46:56.589Z,5.73
2019-06-07T08:49:22.526Z,5.23
2019-06-07T08:52:02.584Z,3.20
2019-06-07T08:54:25.784Z,4.23
2019-06-07T08:57:17.076Z,5.57
2019-06-07T08:59:30.032Z,5.27
2019-06-07T09:02:04.241Z,4.53
2019-06-07T09:04:33.158Z,3.67
2019-06-07T09:07:14.744Z,4.60
2019-06-07T09:09:37.226Z,6.27
2019-06-07T09:12:11.427Z,3.93
2019-06-07T09:14:58.620Z,3.53
2019-06-07T09:17:13.538Z,2.57
2019-06-07T09:19:44.776Z,4.70
2019-06-07T09:22:15.484Z,3.97
2019-06-07T09:24:46.555Z,4.73
2019-06-07T09:27:17.550Z,5.63
2019-06-07T09:29:48.736Z,3.27
2019-06-07T09:32:19.505Z,3.07
2019-06-07T09:34:50.305Z,2.87
2019-06-07T09:38:03.652Z,4.47
2019-06-07T09:39:53.486Z,3.77
2019-06-07T09:42:24.152Z,2.73
2019-06-07T09:44:56.938Z,4.70
2019-06-07T09:47:32.562Z,3.67
2019-06-07T09:50:08.387Z,4.33
2019-06-07T09:52:55.105Z,2.30
2019-06-07T09:55:19.642Z,3.80
2019-06-07T09:57:38.116Z,3.10
2019-06-07T10:00:39.179Z,8.67
2019-06-07T10:02:48.248Z,3.57
2019-06-07T10:05:19.040Z,7.73
2019-06-07T10:08:00.478Z,4.67
2019-06-07T10:12:55.176Z,2.60
2019-06-07T10:15:25.892Z,4.03
2019-06-07T10:17:56.552Z,4.90
2019-06-07T10:20:27.255Z,7.10
2019-06-07T10:22:59.421Z,4.50
2019-06-07T10:25:30.558Z,12.30
2019-06-07T10:28:01.836Z,6.40
2019-06-07T10:30:34.282Z,2.13
2019-06-07T10:33:07.124Z,6.77
2019-06-07T10:35:39.102Z,1.97
2019-06-07T10:38:10.720Z,3.97
2019-06-07T10:40:41.538Z,3.57
2019-06-07T10:43:14.381Z,4.03
2019-06-07T10:45:45.809Z,5.20
2019-06-07T10:48:16.863Z,2.93
2019-06-07T10:50:47.653Z,4.90
2019-06-07T10:53:18.531Z,3.27
2019-06-07T10:55:49.599Z,3.73
2019-06-07T10:58:20.422Z,3.13
2019-06-07T11:00:51.288Z,5.87
2019-06-07T11:03:22.402Z,4.00
2019-06-07T11:05:53.137Z,3.80
2019-06-07T11:08:23.813Z,5.23
2019-06-07T11:10:54.528Z,4.47
2019-06-07T11:13:25.179Z,5.90
2019-06-07T11:15:55.858Z,3.43
2019-06-07T11:18:26.482Z,3.37
2019-06-07T11:20:57.164Z,3.67
2019-06-07T11:23:27.806Z,4.40
2019-06-07T11:25:58.458Z,3.03
2019-06-07T11:28:29.118Z,5.67
2019-06-07T11:30:59.807Z,1.93
2019-06-07T11:33:30.491Z,2.60
2019-06-07T11:36:01.188Z,3.13
2019-06-07T11:38:31.904Z,2.27
2019-06-07T11:41:02.603Z,4.47
2019-06-07T11:43:33.278Z,3.60
2019-06-07T11:46:04.076Z,2.60
2019-06-07T11:48:34.718Z,4.93
2019-06-07T11:51:06.678Z,2.37
2019-06-07T11:53:37.767Z,3.87
2019-06-07T11:56:10.216Z,3.80
2019-06-07T11:58:41.019Z,8.97
2019-06-07T12:01:11.927Z,4.87
2019-06-07T12:03:44.460Z,3.50
2019-06-07T12:06:16.443Z,2.90
2019-06-07T12:08:48.315Z,2.43
2019-06-07T12:11:19.291Z,6.80
2019-06-07T12:13:50.177Z,3.03
2019-06-07T12:16:21.283Z,3.90
2019-06-07T12:18:51.999Z,2.43
2019-06-07T12:21:22.788Z,2.93
2019-06-07T12:23:53.554Z,2.13
2019-06-07T12:26:24.360Z,2.87
2019-06-07T12:28:55.032Z,5.43
2019-06-07T12:31:25.691Z,3.27
2019-06-07T12:33:56.341Z,7.27
2019-06-07T12:36:27.031Z,2.90
2019-06-07T12:38:57.666Z,4.00
2019-06-07T12:41:28.399Z,3.50
2019-06-07T12:43:59.325Z,2.67
2019-06-07T12:46:30.049Z,3.53
2019-06-07T12:49:00.735Z,3.57
2019-06-07T12:51:31.776Z,4.97
2019-06-07T12:54:02.426Z,3.07
2019-06-07T12:56:33.139Z,4.30
2019-06-07T12:59:03.824Z,7.40
2019-06-07T13:01:35.529Z,4.53
2019-06-07T13:04:06.310Z,4.80
2019-06-07T13:06:37.223Z,6.07
2019-06-07T13:09:09.143Z,2.50
2019-06-07T13:11:39.847Z,8.30
2019-06-07T13:14:10.571Z,3.77
2019-06-07T13:16:41.252Z,5.42
2019-06-07T13:19:11.930Z,3.70
2019-06-07T13:21:43.069Z,4.72
2019-06-07T13:24:13.847Z,3.33
2019-06-07T13:26:44.535Z,5.10
2019-06-07T13:29:16.390Z,3.72
2019-06-07T13:31:47.971Z,2.98
2019-06-07T13:34:20.399Z,2.40
2019-06-07T13:36:51.185Z,4.85
2019-06-07T13:39:24.588Z,9.88
2019-06-07T13:41:54.945Z,4.62
2019-06-07T13:44:26.279Z,3.17
2019-06-07T13:46:57.065Z,2.42
2019-06-07T13:49:27.978Z,3.30
2019-06-07T13:51:58.758Z,6.25
2019-06-07T13:54:29.816Z,4.33
2019-06-07T13:57:02.597Z,3.67
2019-06-07T13:59:33.028Z,7.53
2019-06-07T14:02:03.917Z,2.10
2019-06-07T14:04:35.914Z,3.65
2019-06-07T14:07:07.329Z,3.10
2019-06-07T14:09:38.955Z,5.45
2019-06-07T14:12:09.692Z,2.62
2019-06-07T14:14:40.401Z,3.37
2019-06-07T14:17:11.080Z,4.90
2019-06-07T14:19:41.821Z,2.95
2019-06-07T14:22:12.520Z,3.60
2019-06-07T14:24:43.801Z,3.83
2019-06-07T14:27:14.502Z,5.67
2019-06-07T14:29:45.146Z,6.00
2019-06-07T14:32:15.869Z,7.00
2019-06-07T14:34:47.055Z,4.08
2019-06-07T14:37:17.692Z,4.27
2019-06-07T14:39:48.425Z,2.65
2019-06-07T14:42:19.054Z,3.72
2019-06-07T14:44:49.766Z,5.15
2019-06-07T14:47:20.411Z,3.08
2019-06-07T14:49:51.475Z,4.50
2019-06-07T14:52:22.086Z,3.70
2019-06-07T14:54:52.801Z,3.47
2019-06-07T14:57:25.015Z,3.77
2019-06-07T14:59:55.900Z,3.83
2019-06-07T15:02:28.295Z,4.73
2019-06-07T15:05:00.313Z,3.87
2019-06-07T15:07:32.829Z,8.07
2019-06-07T15:10:03.940Z,6.07
2019-06-07T15:12:35.363Z,4.43
2019-06-07T15:15:07.043Z,6.23
2019-06-07T15:17:39.201Z,6.20
2019-06-07T15:20:10.867Z,4.20
2019-06-07T15:22:41.565Z,3.90
2019-06-07T15:25:12.917Z,4.30
2019-06-07T15:27:44.111Z,4.30
2019-06-07T15:30:16.744Z,3.83
2019-06-07T15:32:47.464Z,4.63
2019-06-07T15:35:18.586Z,4.40
2019-06-07T15:37:49.553Z,5.30
2019-06-07T15:40:21.606Z,4.97
2019-06-07T15:42:53.338Z,4.20
2019-06-07T15:45:24.647Z,4.10
2019-06-07T15:47:55.356Z,5.53
2019-06-07T15:50:28.746Z,4.60
2019-06-07T15:52:58.373Z,8.17
2019-06-07T15:55:31.845Z,4.40
2019-06-07T15:58:02.086Z,6.97
2019-06-07T16:00:33.376Z,4.67
2019-06-07T16:03:04.066Z,5.10
2019-06-07T16:05:36.303Z,4.00
2019-06-07T16:08:07.232Z,4.10
2019-06-07T16:10:38.837Z,4.50
2019-06-07T16:13:09.596Z,5.70
2019-06-07T16:15:43.074Z,9.57
2019-06-07T16:18:13.784Z,7.27
2019-06-07T16:20:44.444Z,5.43
2019-06-07T16:23:15.120Z,5.37
2019-06-07T16:25:46.149Z,6.80
2019-06-07T16:28:16.866Z,6.80
2019-06-07T16:30:47.542Z,6.00
2019-06-07T16:33:18.202Z,5.70
2019-06-07T16:35:48.870Z,5.67
2019-06-07T16:38:19.681Z,6.50
2019-06-07T16:40:50.688Z,6.03
2019-06-07T16:43:21.357Z,5.97
2019-06-07T16:45:52.052Z,9.33
2019-06-07T16:48:22.706Z,5.63
2019-06-07T16:50:53.378Z,6.20
2019-06-07T16:53:24.063Z,7.57
2019-06-07T16:55:54.712Z,12.97
2019-06-07T16:58:25.484Z,6.33
2019-06-07T17:00:56.461Z,8.07
2019-06-07T17:03:27.451Z,8.30
2019-06-07T17:05:58.123Z,6.30
2019-06-07T17:08:28.793Z,8.50
2019-06-07T17:10:59.511Z,6.03
2019-06-07T17:13:33.698Z,7.60
2019-06-07T17:16:02.586Z,6.83
2019-06-07T17:18:36.983Z,7.20
2019-06-07T17:21:06.233Z,6.70
2019-06-07T17:23:37.327Z,6.30
2019-06-07T17:26:08.075Z,6.70
2019-06-07T17:28:39.659Z,8.60
2019-06-07T17:31:10.499Z,7.10
2019-06-07T17:33:42.497Z,6.50
2019-06-07T17:36:13.209Z,6.40
2019-06-07T17:38:44.516Z,7.23
2019-06-07T17:41:15.203Z,7.40
2019-06-07T17:43:55.947Z,6.07
2019-06-07T17:46:19.042Z,6.43
2019-06-07T17:48:49.838Z,6.63
2019-06-07T17:51:20.494Z,6.63
2019-06-07T17:53:52.042Z,7.63
2019-06-07T17:56:22.831Z,8.77
2019-06-07T17:58:53.625Z,6.70
2019-06-07T18:01:24.268Z,7.57
2019-06-07T18:03:54.977Z,6.50
2019-06-07T18:06:26.468Z,7.73
2019-06-07T18:08:59.077Z,6.83
2019-06-07T18:11:29.760Z,7.77
2019-06-07T18:14:10.231Z,7.80
2019-06-07T18:16:32.818Z,8.03
2019-06-07T18:19:03.575Z,8.30
2019-06-07T18:21:34.836Z,8.47
2019-06-07T18:24:05.612Z,9.27
2019-06-07T18:26:36.424Z,7.57
2019-06-07T18:29:07.152Z,8.93
2019-06-07T18:31:38.193Z,8.23
2019-06-07T18:34:08.883Z,6.73
2019-06-07T18:36:40.177Z,7.60
2019-06-07T18:39:10.849Z,7.27
2019-06-07T18:41:42.499Z,7.73
2019-06-07T18:44:21.525Z,8.60
2019-06-07T18:46:46.143Z,7.63
2019-06-07T18:49:16.889Z,6.90
2019-06-07T18:52:10.103Z,7.80
2019-06-07T18:54:44.304Z,8.97
2019-06-07T18:57:15.025Z,7.20
2019-06-07T18:59:45.690Z,8.10
2019-06-07T19:02:16.334Z,7.53
2019-06-07T19:04:47.969Z,9.37
2019-06-07T19:07:18.747Z,12.77
2019-06-07T19:09:50.487Z,9.77
2019-06-07T19:12:21.320Z,8.60
2019-06-07T19:14:53.075Z,10.33
2019-06-07T19:17:24.139Z,7.27
2019-06-07T19:19:55.965Z,13.83
2019-06-07T19:22:26.987Z,7.37
2019-06-07T19:24:58.439Z,13.40
2019-06-07T19:27:32.633Z,8.20
2019-06-07T19:30:01.740Z,7.57
2019-06-07T19:32:32.435Z,13.50
2019-06-07T19:35:03.098Z,8.13
2019-06-07T19:37:33.791Z,8.33
2019-06-07T19:40:05.131Z,8.47
2019-06-07T19:42:35.829Z,8.70
2019-06-07T19:45:29.033Z,11.07
2019-06-07T19:47:40.757Z,8.53
2019-06-07T19:50:11.942Z,8.40
2019-06-07T19:52:43.029Z,10.97
2019-06-07T19:55:14.352Z,9.40
2019-06-07T19:57:46.137Z,8.43
2019-06-07T20:00:17.112Z,9.60
2019-06-07T20:02:47.888Z,10.03
2019-06-07T20:05:19.963Z,10.47
2019-06-07T20:07:51.149Z,10.20
2019-06-07T20:10:21.843Z,9.50
2019-06-07T20:12:52.633Z,9.47
2019-06-07T20:15:28.948Z,9.93
2019-06-07T20:17:57.007Z,10.07
2019-06-07T20:20:29.992Z,9.57
2019-06-07T20:23:00.973Z,10.33
2019-06-07T20:25:31.987Z,10.23
2019-06-07T20:28:03.364Z,9.50
2019-06-07T20:30:34.353Z,10.60
2019-06-07T20:33:06.153Z,10.23
2019-06-07T20:35:37.090Z,10.00
2019-06-07T20:38:07.805Z,9.90
2019-06-07T20:40:38.518Z,10.07
2019-06-07T20:43:09.210Z,10.93
2019-06-07T20:45:40.966Z,11.57
2019-06-07T20:48:11.700Z,12.00
2019-06-07T20:50:42.385Z,14.63
2019-06-07T20:53:13.039Z,11.37
2019-06-07T20:55:43.826Z,10.73
2019-06-07T20:58:14.599Z,10.60
2019-06-07T21:00:45.332Z,13.53
2019-06-07T21:03:16.052Z,11.03
2019-06-07T21:05:47.434Z,11.80
2019-06-07T21:08:18.302Z,10.97
2019-06-07T21:10:49.933Z,10.93
2019-06-07T21:13:20.618Z,10.93
2019-06-07T21:15:51.945Z,10.90
2019-06-07T21:18:22.615Z,10.93
2019-06-07T21:20:53.595Z,11.10
2019-06-07T21:23:24.268Z,11.77
2019-06-07T21:25:55.700Z,12.13
2019-06-07T21:28:26.329Z,10.93
2019-06-07T21:30:57.073Z,11.83
2019-06-07T21:33:27.680Z,11.80
2019-06-07T21:35:58.379Z,12.63
2019-06-07T21:38:29.028Z,12.37
2019-06-07T21:41:02.049Z,12.77
2019-06-07T21:43:32.942Z,14.50
2019-06-07T21:46:07.051Z,12.80
2019-06-07T21:48:36.091Z,14.17
2019-06-07T21:51:06.793Z,15.10
2019-06-07T21:53:37.569Z,14.67
2019-06-07T21:56:09.017Z,15.63
2019-06-07T21:58:40.421Z,15.60
2019-06-07T22:01:20.592Z,15.30
2019-06-07T22:03:51.390Z,16.20
2019-06-07T22:06:22.057Z,16.00
2019-06-07T22:08:53.438Z,15.73
2019-06-07T22:11:24.174Z,18.17
2019-06-07T22:13:55.765Z,16.53
2019-06-07T22:16:29.379Z,16.30
2019-06-07T22:18:58.832Z,16.20
2019-06-07T22:21:29.648Z,19.63
2019-06-07T22:24:00.379Z,17.27
2019-06-07T22:26:31.062Z,19.03
2019-06-07T22:29:02.627Z,15.47
2019-06-07T22:31:33.293Z,17.67
2019-06-07T22:34:04.074Z,17.53
2019-06-07T22:36:34.761Z,18.53
2019-06-07T22:39:07.503Z,17.53
2019-06-07T22:41:39.344Z,18.13
2019-06-07T22:44:10.750Z,18.30
2019-06-07T22:46:41.672Z,23.27
2019-06-07T22:49:13.347Z,24.90
2019-06-07T22:51:44.283Z,21.83
2019-06-07T22:54:16.082Z,22.97
2019-06-07T22:56:57.964Z,20.23
2019-06-07T22:59:28.700Z,19.53
2019-06-07T23:01:59.676Z,20.83
2019-06-07T23:04:30.406Z,19.23
2019-06-07T23:07:01.458Z,20.27
2019-06-07T23:09:32.130Z,19.57
2019-06-07T23:12:02.798Z,20.47
2019-06-07T23:14:33.511Z,20.50
2019-06-07T23:17:04.158Z,20.43
2019-06-07T23:19:34.862Z,20.40
2019-06-07T23:22:05.528Z,19.77
2019-06-07T23:24:36.227Z,21.00
2019-06-07T23:27:06.985Z,20.17
2019-06-07T23:29:37.632Z,19.57
2019-06-07T23:32:08.332Z,17.40
2019-06-07T23:34:38.988Z,17.87
2019-06-07T23:37:10.867Z,17.07
2019-06-07T23:39:42.686Z,17.80
2019-06-07T23:42:13.428Z,16.57
2019-06-07T23:44:44.056Z,16.80
2019-06-07T23:47:17.000Z,17.37
2019-06-07T23:49:47.990Z,17.77
2019-06-07T23:52:19.747Z,16.47
2019-06-07T23:54:50.629Z,17.63
2019-06-07T23:57:22.625Z,17.70
2019-06-07T23:59:53.368Z,17.73
